Time;durP1;ratioP1;P1;durP2;ratioP2;P2;SDS_P1;SDS_P2;PMS_P1;PMS_P2;Temp;Humidity;BMP_temperature;BMP_pressure;BME280_temperature;BME280_humidity;BME280_pressure;Samples;Min_cycle;Max_cycle;Signal;HPM_P1;HPM_P2
2022/06/01 00:00:30;;;;;;;6.23;5.33;;;12.90;99.90;;;;;;5035907;28;20168;-65
2022/06/01 00:02:57;;;;;;;5.90;5.23;;;12.90;99.90;;;;;;5035830;28;20248;-64
2022/06/01 00:05:23;;;;;;;6.60;5.33;;;12.90;99.90;;;;;;5035810;28;20240;-66
2022/06/01 00:07:49;;;;;;;6.33;5.43;;;13.00;99.90;;;;;;5036079;28;20212;-64
2022/06/01 00:10:15;;;;;;;6.27;5.27;;;13.00;99.90;;;;;;5035995;28;20258;-65
2022/06/01 00:12:42;;;;;;;6.40;5.40;;;12.90;99.90;;;;;;5035893;28;20244;-65
2022/06/01 00:15:09;;;;;;;7.77;5.47;;;12.90;99.90;;;;;;5035779;28;20596;-65
2022/06/01 00:17:34;;;;;;;8.00;6.20;;;12.90;99.90;;;;;;5036098;28;20216;-64
2022/06/01 00:20:00;;;;;;;6.43;5.73;;;12.90;99.90;;;;;;5036405;28;20585;-65
2022/06/01 00:22:26;;;;;;;6.60;5.77;;;12.80;99.90;;;;;;5036340;28;20247;-65
2022/06/01 00:24:51;;;;;;;8.10;6.30;;;12.80;99.90;;;;;;5035218;28;20200;-67
2022/06/01 00:27:18;;;;;;;7.83;6.50;;;12.80;99.90;;;;;;5040617;28;20192;-65
2022/06/01 00:29:44;;;;;;;7.00;5.70;;;12.70;99.90;;;;;;5041532;28;20215;-64
2022/06/01 00:32:12;;;;;;;8.20;6.53;;;12.70;99.90;;;;;;5039485;28;20169;-65
2022/06/01 00:34:38;;;;;;;10.10;6.50;;;12.60;99.90;;;;;;5040032;28;20164;-68
2022/06/01 00:37:04;;;;;;;10.83;6.57;;;12.60;99.90;;;;;;5040406;28;20238;-65
2022/06/01 00:39:31;;;;;;;7.77;6.40;;;12.60;99.90;;;;;;5038598;28;20530;-64
2022/06/01 00:42:13;;;;;;;7.73;6.03;;;12.60;99.90;;;;;;5035183;28;20256;-66
2022/06/01 00:44:39;;;;;;;8.53;6.50;;;12.60;99.90;;;;;;5035142;28;20291;-64
2022/06/01 00:47:05;;;;;;;7.93;6.17;;;12.50;99.90;;;;;;5035481;28;20311;-64
2022/06/01 00:49:32;;;;;;;7.90;6.97;;;12.50;99.90;;;;;;5035331;28;20214;-65
2022/06/01 00:51:57;;;;;;;8.23;6.20;;;12.40;99.90;;;;;;5036287;28;20160;-64
2022/06/01 00:54:24;;;;;;;7.90;6.30;;;12.40;99.90;;;;;;5037194;28;20169;-66
2022/06/01 00:56:55;;;;;;;7.80;6.43;;;12.40;99.90;;;;;;5047009;28;20169;-66
2022/06/01 00:59:24;;;;;;;8.10;6.60;;;12.30;99.90;;;;;;5047899;28;20152;-65
2022/06/01 01:01:53;;;;;;;7.50;6.70;;;12.30;99.90;;;;;;5052847;28;20264;-64
2022/06/01 01:04:19;;;;;;;8.83;6.70;;;12.30;99.90;;;;;;5046922;28;20201;-64
2022/06/01 01:06:45;;;;;;;8.80;7.03;;;12.30;99.90;;;;;;5033956;28;20177;-64
2022/06/01 01:09:12;;;;;;;9.63;7.70;;;12.30;99.90;;;;;;5035187;28;20175;-65
2022/06/01 01:11:47;;;;;;;9.90;7.57;;;12.30;99.90;;;;;;5035082;28;20175;-64
2022/06/01 01:14:14;;;;;;;11.33;6.97;;;12.30;99.90;;;;;;5035558;28;20160;-64
2022/06/01 01:16:40;;;;;;;10.03;7.90;;;12.20;99.90;;;;;;5035722;28;20153;-64
2022/06/01 01:19:18;;;;;;;11.20;8.07;;;12.30;99.90;;;;;;5035271;28;20184;-64
2022/06/01 01:22:21;;;;;;;10.70;7.97;;;12.20;99.90;;;;;;5035374;28;20183;-63
2022/06/01 01:25:09;;;;;;;9.77;8.20;;;12.30;99.90;;;;;;5035476;28;20196;-65
2022/06/01 01:27:35;;;;;;;10.27;7.60;;;12.20;99.90;;;;;;5035492;28;20255;-65
2022/06/01 01:30:00;;;;;;;7.83;6.90;;;12.20;99.90;;;;;;5035385;28;20231;-64
2022/06/01 01:32:26;;;;;;;10.03;7.73;;;12.20;99.90;;;;;;5035778;28;20173;-66
2022/06/01 01:34:52;;;;;;;8.73;7.43;;;12.20;99.90;;;;;;5036324;28;20164;-64
2022/06/01 01:37:24;;;;;;;12.97;8.63;;;12.20;99.90;;;;;;5033949;28;20251;-64
2022/06/01 01:39:52;;;;;;;10.50;7.60;;;12.20;99.90;;;;;;5034016;28;20256;-65
2022/06/01 01:42:19;;;;;;;10.23;7.60;;;12.10;99.90;;;;;;5034090;28;20589;-64
2022/06/01 01:44:47;;;;;;;12.23;7.80;;;12.10;99.90;;;;;;5034169;28;20243;-65
2022/06/01 01:47:13;;;;;;;10.13;7.40;;;12.10;99.90;;;;;;5032997;28;20263;-65
2022/06/01 01:49:40;;;;;;;9.53;7.77;;;12.20;99.90;;;;;;5032402;28;20165;-63
2022/06/01 01:52:10;;;;;;;11.13;8.20;;;12.10;99.90;;;;;;5034527;28;20188;-64
2022/06/01 01:55:00;;;;;;;10.97;7.97;;;12.10;99.90;;;;;;5033808;28;20169;-64
2022/06/01 01:57:50;;;;;;;9.50;8.13;;;12.10;99.90;;;;;;5033259;28;20215;-65
2022/06/01 02:00:24;;;;;;;9.73;8.03;;;12.10;99.90;;;;;;5033115;28;20450;-64
2022/06/01 02:03:04;;;;;;;10.50;8.47;;;12.10;99.90;;;;;;5033506;28;20610;-64
2022/06/01 02:08:35;;;;;;;9.17;7.70;;;11.90;99.90;;;;;;5033543;28;20168;-64
2022/06/01 02:13:57;;;;;;;9.10;7.10;;;11.90;99.90;;;;;;5033119;28;20199;-64
2022/06/01 02:16:26;;;;;;;10.50;8.10;;;11.80;99.90;;;;;;5032540;28;20173;-63
2022/06/01 02:18:57;;;;;;;12.00;7.00;;;11.80;99.90;;;;;;5033682;28;20509;-65
2022/06/01 02:21:26;;;;;;;11.80;7.47;;;11.80;99.90;;;;;;5033312;28;20206;-65
2022/06/01 02:23:53;;;;;;;9.27;7.40;;;11.80;99.90;;;;;;5033160;28;20197;-64
2022/06/01 02:26:20;;;;;;;11.87;8.13;;;11.80;99.90;;;;;;5033878;28;20164;-66
2022/06/01 02:28:48;;;;;;;10.70;7.73;;;11.90;99.90;;;;;;5033251;28;20184;-64
2022/06/01 02:31:16;;;;;;;9.23;7.57;;;11.90;99.90;;;;;;5033036;28;20157;-64
2022/06/01 02:33:44;;;;;;;10.23;8.00;;;11.80;99.90;;;;;;5033519;28;20176;-65
2022/06/01 02:36:14;;;;;;;9.37;6.80;;;11.70;99.90;;;;;;5033613;28;20186;-64
2022/06/01 02:38:43;;;;;;;8.73;7.47;;;11.70;99.90;;;;;;5033055;28;20173;-64
2022/06/01 02:42:25;;;;;;;7.90;6.70;;;11.70;99.90;;;;;;5032963;28;20168;-64
2022/06/01 02:43:55;;;;;;;9.30;7.37;;;11.70;99.90;;;;;;5033181;28;20663;-63
2022/06/01 02:46:21;;;;;;;8.63;7.07;;;11.50;99.90;;;;;;5034498;28;20169;-65
2022/06/01 02:48:47;;;;;;;8.20;6.73;;;11.60;99.90;;;;;;5072421;22;20251;-65
2022/06/01 02:51:14;;;;;;;11.63;7.27;;;11.60;99.90;;;;;;5053912;28;20160;-64
2022/06/01 02:53:39;;;;;;;9.27;7.30;;;11.60;99.90;;;;;;5052977;28;20187;-65
2022/06/01 02:56:05;;;;;;;13.67;7.93;;;11.50;99.90;;;;;;5053147;28;20600;-64
2022/06/01 02:58:31;;;;;;;9.03;7.47;;;11.50;99.90;;;;;;5053050;28;20500;-65
2022/06/01 03:00:58;;;;;;;12.50;7.77;;;11.40;99.90;;;;;;5053619;28;20168;-64
2022/06/01 03:03:25;;;;;;;10.17;7.33;;;11.40;99.90;;;;;;5052837;28;20233;-64
2022/06/01 03:05:51;;;;;;;12.50;8.97;;;11.30;99.90;;;;;;5063334;28;20171;-68
2022/06/01 03:08:17;;;;;;;11.33;7.80;;;11.30;99.90;;;;;;5067642;28;20278;-65
2022/06/01 03:10:44;;;;;;;9.10;7.50;;;11.20;99.90;;;;;;5067853;28;20224;-65
2022/06/01 03:13:10;;;;;;;10.93;7.80;;;11.30;99.90;;;;;;5073181;28;20173;-65
2022/06/01 03:15:36;;;;;;;11.53;8.87;;;11.40;99.90;;;;;;5058439;28;20186;-64
2022/06/01 03:18:02;;;;;;;10.23;8.23;;;11.40;99.90;;;;;;5056648;28;20169;-63
2022/06/01 03:20:29;;;;;;;10.63;8.20;;;11.40;99.90;;;;;;5056619;28;20172;-64
2022/06/01 03:22:55;;;;;;;11.27;7.67;;;11.30;99.90;;;;;;5056795;28;20247;-65
2022/06/01 03:25:23;;;;;;;9.63;7.40;;;11.20;99.90;;;;;;5056523;28;20218;-64
2022/06/01 03:27:50;;;;;;;12.10;8.93;;;11.30;99.90;;;;;;5056608;28;20174;-64
2022/06/01 03:30:17;;;;;;;9.37;7.30;;;11.20;99.90;;;;;;5055957;28;20251;-65
2022/06/01 03:32:44;;;;;;;12.93;7.83;;;11.30;99.90;;;;;;5055906;28;20168;-64
2022/06/01 03:35:11;;;;;;;9.07;7.50;;;11.20;99.90;;;;;;5056569;28;20156;-65
2022/06/01 03:37:36;;;;;;;10.10;8.07;;;11.30;99.90;;;;;;5056337;28;20165;-65
2022/06/01 03:40:05;;;;;;;14.87;8.37;;;11.40;99.90;;;;;;5056239;28;20226;-65
2022/06/01 03:42:31;;;;;;;10.13;8.33;;;11.40;99.90;;;;;;5056263;28;20217;-65
2022/06/01 03:47:42;;;;;;;10.63;8.37;;;11.50;99.90;;;;;;5055955;28;20237;-65
2022/06/01 03:50:09;;;;;;;9.63;8.00;;;11.40;99.90;;;;;;5055795;28;20220;-63
2022/06/01 03:52:35;;;;;;;11.03;8.30;;;11.50;99.90;;;;;;5055704;28;20166;-64
2022/06/01 03:55:00;;;;;;;10.60;7.73;;;11.40;99.90;;;;;;5055789;28;20166;-65
2022/06/01 03:57:26;;;;;;;13.60;8.90;;;11.30;99.90;;;;;;5056317;28;20624;-64
2022/06/01 03:59:52;;;;;;;10.23;8.47;;;11.20;99.90;;;;;;5055833;28;20179;-63
2022/06/01 04:02:18;;;;;;;12.87;7.80;;;11.20;99.90;;;;;;5055559;28;20552;-66
2022/06/01 04:04:44;;;;;;;9.87;8.50;;;11.30;99.90;;;;;;5055337;28;20234;-64
2022/06/01 04:07:10;;;;;;;10.20;8.03;;;11.40;99.90;;;;;;5056322;28;20164;-66
2022/06/01 04:09:36;;;;;;;12.33;8.17;;;11.30;99.90;;;;;;5056805;28;20160;-65
2022/06/01 04:12:01;;;;;;;14.90;8.77;;;11.40;99.90;;;;;;5055362;28;20168;-64
2022/06/01 04:14:27;;;;;;;16.07;9.90;;;11.60;99.90;;;;;;5054885;28;20166;-65
2022/06/01 04:16:53;;;;;;;12.43;8.67;;;11.50;99.90;;;;;;5055424;28;20194;-64
2022/06/01 04:19:18;;;;;;;11.73;9.20;;;11.40;99.90;;;;;;5055118;28;20172;-65
2022/06/01 04:21:48;;;;;;;11.40;8.73;;;11.50;99.90;;;;;;5055246;28;20248;-67
2022/06/01 04:24:16;;;;;;;11.53;9.40;;;11.50;99.90;;;;;;5054559;28;20281;-64
2022/06/01 04:26:42;;;;;;;13.80;9.30;;;11.50;99.90;;;;;;5057639;28;20179;-65
2022/06/01 04:29:08;;;;;;;13.73;8.70;;;11.50;99.90;;;;;;5055379;28;20172;-63
2022/06/01 04:31:35;;;;;;;15.07;9.53;;;11.60;99.90;;;;;;5055155;28;20163;-64
2022/06/01 04:34:02;;;;;;;13.07;9.33;;;11.70;99.90;;;;;;5055518;28;20171;-64
2022/06/01 04:36:27;;;;;;;12.60;8.80;;;11.60;99.90;;;;;;5055054;28;20169;-64
2022/06/01 04:38:53;;;;;;;13.13;9.20;;;11.70;99.90;;;;;;5055627;28;20164;-65
2022/06/01 04:41:18;;;;;;;13.90;9.80;;;11.70;99.90;;;;;;5054671;28;20215;-65
2022/06/01 04:43:44;;;;;;;12.63;8.80;;;11.70;99.90;;;;;;5054939;28;20196;-64
2022/06/01 04:46:10;;;;;;;11.10;8.73;;;11.90;99.90;;;;;;5055117;28;20276;-64
2022/06/01 04:48:35;;;;;;;12.67;8.57;;;11.80;99.90;;;;;;5054664;28;20249;-65
2022/06/01 04:51:02;;;;;;;12.53;8.80;;;11.90;99.90;;;;;;5054613;28;20161;-64
2022/06/01 04:53:28;;;;;;;11.20;9.07;;;11.70;99.90;;;;;;5054778;28;20169;-63
2022/06/01 04:55:53;;;;;;;13.03;9.07;;;11.90;99.90;;;;;;5055303;28;20195;-63
2022/06/01 04:58:19;;;;;;;12.57;8.50;;;11.90;99.90;;;;;;5054397;28;20165;-64
2022/06/01 05:00:46;;;;;;;12.57;8.60;;;11.90;99.90;;;;;;5054982;28;20176;-64
2022/06/01 05:03:13;;;;;;;10.37;8.80;;;11.90;99.90;;;;;;5054247;28;20569;-65
2022/06/01 05:05:39;;;;;;;15.63;9.10;;;12.00;99.90;;;;;;5054881;28;20158;-64
2022/06/01 05:08:10;;;;;;;12.47;9.00;;;11.90;99.90;;;;;;5055921;28;20199;-64
2022/06/01 05:10:35;;;;;;;14.37;8.20;;;11.90;99.90;;;;;;5054025;28;20172;-65
2022/06/01 05:13:02;;;;;;;12.43;9.57;;;12.10;99.90;;;;;;5060352;28;20171;-64
2022/06/01 05:15:28;;;;;;;12.83;9.13;;;12.10;99.90;;;;;;5067436;28;20236;-65
2022/06/01 05:17:54;;;;;;;10.83;8.77;;;12.10;99.90;;;;;;5063618;28;20164;-64
2022/06/01 05:20:19;;;;;;;16.43;9.33;;;12.20;99.90;;;;;;5068414;28;20160;-66
2022/06/01 05:22:45;;;;;;;11.43;9.33;;;12.40;99.90;;;;;;5062741;28;20507;-65
2022/06/01 05:25:11;;;;;;;11.90;9.00;;;12.40;99.90;;;;;;5054120;28;20646;-65
2022/06/01 05:27:36;;;;;;;13.43;9.13;;;12.40;99.90;;;;;;5054007;28;20568;-64
2022/06/01 05:30:04;;;;;;;14.60;9.93;;;12.60;99.90;;;;;;5053717;28;20255;-65
2022/06/01 05:32:29;;;;;;;12.97;9.63;;;12.50;99.90;;;;;;5054207;28;20578;-65
2022/06/01 05:34:55;;;;;;;14.10;9.73;;;12.70;99.90;;;;;;5054138;28;20222;-65
2022/06/01 05:37:20;;;;;;;11.67;8.63;;;12.60;99.90;;;;;;5056749;28;20164;-65
2022/06/01 05:39:46;;;;;;;18.37;10.20;;;12.80;99.90;;;;;;5054889;28;20161;-64
2022/06/01 05:42:12;;;;;;;13.20;9.87;;;12.70;99.90;;;;;;5053704;28;20180;-66
2022/06/01 05:44:37;;;;;;;13.90;9.17;;;12.90;99.90;;;;;;5053558;28;20265;-64
2022/06/01 05:47:04;;;;;;;12.90;9.57;;;12.90;99.90;;;;;;5053757;28;20235;-64
2022/06/01 05:49:30;;;;;;;16.47;10.63;;;13.10;99.90;;;;;;5053616;28;20220;-65
2022/06/01 05:51:56;;;;;;;14.23;9.57;;;13.00;99.90;;;;;;5053348;28;20196;-65
2022/06/01 05:54:22;;;;;;;13.67;9.63;;;13.10;99.90;;;;;;5053705;28;20195;-65
2022/06/01 05:56:48;;;;;;;14.33;10.10;;;13.30;99.90;;;;;;5053778;28;20160;-65
2022/06/01 05:59:14;;;;;;;11.57;9.63;;;13.30;99.90;;;;;;5053526;28;20509;-65
2022/06/01 06:01:40;;;;;;;13.63;8.90;;;13.50;99.90;;;;;;5053484;28;20478;-64
2022/06/01 06:04:06;;;;;;;10.53;8.67;;;13.40;99.90;;;;;;5052880;28;20195;-64
2022/06/01 06:06:33;;;;;;;12.30;9.50;;;13.50;99.90;;;;;;5053460;28;20298;-66
2022/06/01 06:09:02;;;;;;;11.20;8.87;;;13.80;99.90;;;;;;5053178;28;20171;-64
2022/06/01 06:11:30;;;;;;;13.77;8.03;;;13.90;99.90;;;;;;5052896;28;20651;-65
2022/06/01 06:14:00;;;;;;;8.40;7.17;;;14.00;99.90;;;;;;5053341;28;20263;-64
2022/06/01 06:16:28;;;;;;;9.83;7.67;;;14.10;99.90;;;;;;5053684;28;20218;-65
2022/06/01 06:18:57;;;;;;;9.47;8.30;;;14.30;99.90;;;;;;5053447;28;20176;-64
2022/06/01 06:21:25;;;;;;;8.27;6.63;;;14.40;99.90;;;;;;5053311;28;20161;-66
2022/06/01 06:23:50;;;;;;;9.40;7.00;;;14.40;99.90;;;;;;5053365;28;20199;-65
2022/06/01 06:26:16;;;;;;;7.43;6.63;;;14.80;99.90;;;;;;5052519;28;20180;-66
2022/06/01 06:28:44;;;;;;;9.67;6.93;;;14.80;99.90;;;;;;5052445;28;20180;-66
2022/06/01 06:31:10;;;;;;;11.13;6.23;;;14.90;99.90;;;;;;5053430;28;20263;-65
2022/06/01 06:33:35;;;;;;;6.27;5.50;;;14.90;99.90;;;;;;5052728;28;20491;-65
2022/06/01 06:36:04;;;;;;;6.60;5.30;;;14.90;99.90;;;;;;5054110;28;20176;-66
2022/06/01 06:38:31;;;;;;;6.97;5.03;;;15.00;99.90;;;;;;5069612;28;20201;-65
2022/06/01 06:40:59;;;;;;;6.83;5.40;;;15.30;99.90;;;;;;5076859;28;20174;-65
2022/06/01 06:43:26;;;;;;;7.20;6.10;;;15.40;99.90;;;;;;5077089;28;20199;-65
2022/06/01 06:46:00;;;;;;;6.30;4.93;;;15.60;99.90;;;;;;5077934;28;20572;-66
2022/06/01 06:48:26;;;;;;;6.87;4.60;;;15.60;99.90;;;;;;5078247;28;20672;-64
2022/06/01 06:50:52;;;;;;;6.33;4.43;;;15.70;99.90;;;;;;5077774;28;20167;-65
2022/06/01 06:53:18;;;;;;;5.03;2.87;;;15.80;99.90;;;;;;5079753;28;20159;-64
2022/06/01 06:55:44;;;;;;;4.63;3.23;;;15.90;99.90;;;;;;5078903;28;20277;-65
2022/06/01 06:58:11;;;;;;;3.23;2.93;;;16.00;99.90;;;;;;5078298;28;20221;-64
2022/06/01 07:00:37;;;;;;;3.60;2.53;;;16.10;99.90;;;;;;5078739;28;20238;-64
2022/06/01 07:03:04;;;;;;;6.53;2.40;;;16.20;99.90;;;;;;5078402;28;20191;-65
2022/06/01 07:08:15;;;;;;;3.67;3.00;;;16.60;99.90;;;;;;5078128;28;20657;-65
2022/06/01 07:10:41;;;;;;;2.30;2.10;;;16.40;99.90;;;;;;5077581;28;20263;-66
2022/06/01 07:13:07;;;;;;;6.67;2.13;;;16.50;99.90;;;;;;5078011;28;20255;-65
2022/06/01 07:15:33;;;;;;;2.87;1.90;;;16.80;99.90;;;;;;5078752;28;20163;-64
2022/06/01 07:17:58;;;;;;;5.40;2.20;;;16.60;99.90;;;;;;5085092;28;20171;-66
2022/06/01 07:20:24;;;;;;;3.00;2.13;;;16.80;99.90;;;;;;5085125;28;20164;-65
2022/06/01 07:22:49;;;;;;;3.00;2.30;;;17.00;99.90;;;;;;5077781;28;20167;-66
2022/06/01 07:25:15;;;;;;;2.10;1.90;;;16.90;99.90;;;;;;5083606;28;20579;-66
2022/06/01 07:27:42;;;;;;;4.45;1.90;;;16.80;99.90;;;;;;5071803;28;20191;-65
2022/06/01 07:30:09;;;;;;;2.15;1.92;;;17.00;99.90;;;;;;5064430;28;20203;-66
2022/06/01 07:32:34;;;;;;;2.78;1.90;;;17.20;99.90;;;;;;5064412;28;20200;-65
2022/06/01 07:35:02;;;;;;;2.00;1.85;;;17.30;99.90;;;;;;5056374;28;20278;-66
2022/06/01 07:43:07;;;;;;;3.42;1.92;;;17.30;99.90;;;;;;5051577;28;20190;-66
2022/06/01 07:45:38;;;;;;;2.97;2.05;;;17.40;99.90;;;;;;5055294;28;20200;-66
2022/06/01 07:48:05;;;;;;;3.53;2.03;;;17.50;99.90;;;;;;5054979;28;20255;-66
2022/06/01 07:50:32;;;;;;;4.18;2.08;;;17.40;99.90;;;;;;5054559;28;20263;-68
2022/06/01 07:52:58;;;;;;;2.30;2.00;;;17.30;99.90;;;;;;5056196;28;20207;-66
2022/06/01 07:55:25;;;;;;;3.33;2.42;;;17.40;99.90;;;;;;5055893;28;20186;-66
2022/06/01 07:57:50;;;;;;;2.42;2.22;;;17.40;99.90;;;;;;5056027;28;20214;-65
2022/06/01 08:00:17;;;;;;;2.33;1.90;;;17.40;99.90;;;;;;5054779;28;20176;-65
2022/06/01 08:02:43;;;;;;;2.97;2.30;;;17.40;99.90;;;;;;5055345;28;20153;-66
2022/06/01 08:05:10;;;;;;;2.20;2.00;;;17.50;99.90;;;;;;5056321;28;20192;-66
2022/06/01 08:07:36;;;;;;;3.03;2.00;;;17.50;99.90;;;;;;5057008;28;20243;-65
2022/06/01 08:10:03;;;;;;;2.38;2.17;;;17.70;99.90;;;;;;5054735;28;20172;-65
2022/06/01 08:15:13;;;;;;;2.92;2.20;;;17.90;99.90;;;;;;5055441;28;20163;-66
2022/06/01 08:17:40;;;;;;;4.40;2.28;;;18.10;99.90;;;;;;5055065;28;20325;-67
2022/06/01 08:20:06;;;;;;;2.65;2.30;;;18.30;99.90;;;;;;5054688;28;20241;-65
2022/06/01 08:22:31;;;;;;;2.30;2.10;;;18.50;99.90;;;;;;5055365;28;20543;-66
2022/06/01 08:24:57;;;;;;;4.22;2.20;;;18.50;99.90;;;;;;5054950;28;20200;-67
2022/06/01 08:27:22;;;;;;;2.50;2.30;;;18.10;99.90;;;;;;5055271;28;20283;-67
2022/06/01 08:29:48;;;;;;;4.32;2.35;;;18.20;99.90;;;;;;5055118;28;20200;-65
2022/06/01 08:32:14;;;;;;;2.83;2.33;;;18.50;99.90;;;;;;5055246;28;20172;-65
2022/06/01 08:34:39;;;;;;;2.40;2.03;;;18.50;99.90;;;;;;5055085;28;20172;-65
2022/06/01 08:37:05;;;;;;;2.40;2.20;;;18.50;99.90;;;;;;5055209;28;20156;-67
2022/06/01 08:39:32;;;;;;;2.58;2.10;;;18.50;99.90;;;;;;5053034;28;20210;-67
2022/06/01 08:42:00;;;;;;;2.17;1.98;;;18.70;99.90;;;;;;5054690;28;20167;-67
2022/06/01 08:44:31;;;;;;;2.78;1.83;;;18.60;99.90;;;;;;5054874;28;20208;-65
2022/06/01 08:47:01;;;;;;;2.13;1.92;;;18.50;99.90;;;;;;5054704;28;20212;-66
2022/06/01 08:49:30;;;;;;;4.47;1.83;;;18.30;99.90;;;;;;5054972;28;20223;-66
2022/06/01 08:51:56;;;;;;;2.60;2.10;;;18.60;99.90;;;;;;5050744;28;20198;-65
2022/06/01 08:54:22;;;;;;;2.00;1.80;;;18.40;99.90;;;;;;5054379;28;20176;-67
2022/06/01 08:56:51;;;;;;;2.55;1.40;;;18.90;99.90;;;;;;5054563;28;20153;-65
2022/06/01 08:59:32;;;;;;;2.33;1.80;;;19.30;99.90;;;;;;5054784;28;20164;-65
2022/06/01 09:02:07;;;;;;;2.75;1.48;;;19.50;99.90;;;;;;5054903;28;20169;-67
2022/06/01 09:04:53;;;;;;;2.05;1.60;;;19.70;99.90;;;;;;5032716;28;20216;-65
2022/06/01 09:07:33;;;;;;;4.05;1.27;;;20.00;98.20;;;;;;5035543;28;20165;-67
2022/06/01 09:10:13;;;;;;;2.55;1.30;;;20.10;95.20;;;;;;5044523;28;20229;-66
2022/06/01 09:12:41;;;;;;;4.22;1.45;;;19.90;93.30;;;;;;5046505;28;20165;-68
2022/06/01 09:15:24;;;;;;;1.40;1.30;;;20.10;95.80;;;;;;5049580;28;20162;-67
2022/06/01 09:17:50;;;;;;;1.50;1.40;;;20.30;95.80;;;;;;5043203;28;20196;-65
2022/06/01 09:23:11;;;;;;;2.83;1.67;;;20.10;96.60;;;;;;5034068;28;20195;-66
2022/06/01 09:25:37;;;;;;;1.70;1.45;;;19.80;99.90;;;;;;5033533;28;20286;-66
2022/06/01 09:28:24;;;;;;;2.22;1.40;;;19.50;99.90;;;;;;5034520;28;20613;-67
2022/06/01 09:31:18;;;;;;;1.67;1.50;;;19.70;99.90;;;;;;5029784;28;20274;-66
2022/06/01 09:33:44;;;;;;;1.40;1.30;;;19.40;99.90;;;;;;5018438;28;20612;-65
2022/06/01 09:36:09;;;;;;;1.40;1.30;;;19.40;95.20;;;;;;5049435;28;20207;-66
2022/06/01 09:38:47;;;;;;;2.65;1.20;;;19.30;92.20;;;;;;5052486;28;20456;-64
2022/06/01 09:41:26;;;;;;;13.05;8.00;;;19.60;93.20;;;;;;5056246;28;20203;-67
2022/06/01 09:44:04;;;;;;;1.65;1.55;;;20.10;92.00;;;;;;5057567;28;20208;-67
2022/06/01 09:46:36;;;;;;;1.50;1.40;;;20.00;92.90;;;;;;5058594;28;20206;-65
2022/06/01 09:49:11;;;;;;;1.63;1.52;;;19.80;94.50;;;;;;5056958;28;20243;-68
2022/06/01 09:51:41;;;;;;;3.45;2.30;;;19.80;97.70;;;;;;5061606;28;20612;-65
2022/06/01 09:54:29;;;;;;;2.63;1.88;;;19.70;98.80;;;;;;5056961;28;20659;-67
2022/06/01 09:56:55;;;;;;;2.03;1.65;;;19.20;99.90;;;;;;5053505;28;20287;-65
2022/06/01 10:08:15;;;;;;;4.18;1.83;;;19.70;99.90;;;;;;5053729;28;20217;-66
2022/06/01 10:11:01;;;;;;;1.63;1.52;;;19.40;99.90;;;;;;5053087;28;20557;-67
2022/06/01 10:13:50;;;;;;;3.47;1.95;;;19.40;99.90;;;;;;5053877;28;20507;-65
2022/06/01 10:16:46;;;;;;;2.22;1.60;;;19.80;99.20;;;;;;5053432;28;20240;-65
2022/06/01 10:19:15;;;;;;;4.75;1.75;;;19.60;99.90;;;;;;5053662;28;20156;-68
2022/06/01 10:21:52;;;;;;;2.60;1.77;;;19.00;99.90;;;;;;5053401;28;20202;-69
2022/06/01 10:24:29;;;;;;;2.70;1.80;;;19.20;99.90;;;;;;5054090;28;20202;-68
2022/06/01 10:26:58;;;;;;;2.38;1.85;;;19.60;99.90;;;;;;5056662;28;20187;-67
2022/06/01 10:29:32;;;;;;;2.20;2.00;;;19.60;99.90;;;;;;5057602;28;20190;-66
2022/06/01 10:32:28;;;;;;;1.65;1.55;;;20.00;99.90;;;;;;5054273;28;20164;-68
2022/06/01 10:35:26;;;;;;;3.40;1.60;;;19.90;99.90;;;;;;5047508;28;20188;-66
2022/06/01 10:37:59;;;;;;;2.45;1.70;;;20.20;99.20;;;;;;5053069;28;20194;-67
2022/06/01 10:40:42;;;;;;;1.73;1.60;;;20.30;98.60;;;;;;5053233;28;20619;-68
2022/06/01 10:43:48;;;;;;;1.80;1.65;;;20.60;96.10;;;;;;5053181;28;20646;-68
2022/06/01 10:46:44;;;;;;;2.88;1.90;;;20.80;95.00;;;;;;5045457;28;20199;-66
2022/06/01 10:49:22;;;;;;;2.38;1.63;;;20.80;93.50;;;;;;5052604;28;20242;-67
2022/06/01 10:52:13;;;;;;;1.83;1.55;;;20.60;91.40;;;;;;5053235;28;20171;-67
2022/06/01 10:54:50;;;;;;;2.17;1.60;;;20.50;91.30;;;;;;5052228;28;20200;-68
2022/06/01 10:57:19;;;;;;;1.70;1.40;;;20.70;90.20;;;;;;5053133;28;20172;-68
2022/06/01 10:59:46;;;;;;;1.85;1.50;;;20.90;83.40;;;;;;5052942;28;20168;-67
2022/06/01 11:02:38;;;;;;;1.88;1.30;;;20.80;82.30;;;;;;5053731;28;20577;-66
2022/06/01 11:05:46;;;;;;;1.33;1.23;;;20.70;82.00;;;;;;5048727;28;20258;-68
2022/06/01 11:08:29;;;;;;;1.55;1.42;;;21.10;83.70;;;;;;5053529;28;20180;-69
2022/06/01 11:11:11;;;;;;;1.90;1.48;;;21.40;82.10;;;;;;5053587;28;20174;-67
2022/06/01 11:14:11;;;;;;;3.28;1.63;;;21.40;79.70;;;;;;5053489;28;20526;-68
2022/06/01 11:16:58;;;;;;;1.58;1.48;;;21.30;80.50;;;;;;5051950;28;20208;-67
2022/06/01 11:19:51;;;;;;;2.08;1.60;;;21.70;78.90;;;;;;5052948;28;20179;-69
2022/06/01 11:22:39;;;;;;;2.55;1.70;;;21.80;75.80;;;;;;5052958;28;20516;-67
2022/06/01 11:25:34;;;;;;;1.95;1.75;;;21.40;76.70;;;;;;5056900;28;20207;-66
2022/06/01 11:28:34;;;;;;;3.70;1.70;;;21.40;74.30;;;;;;5056258;28;20253;-68
2022/06/01 11:31:19;;;;;;;2.05;1.85;;;21.40;75.80;;;;;;5057097;28;20152;-66
2022/06/01 11:33:53;;;;;;;4.00;2.08;;;21.60;75.90;;;;;;5057070;28;20164;-65
2022/06/01 11:36:44;;;;;;;1.70;1.60;;;21.80;75.20;;;;;;5056303;28;20238;-67
2022/06/01 11:39:24;;;;;;;1.65;1.55;;;21.90;73.50;;;;;;5052985;28;20624;-68
2022/06/01 11:42:02;;;;;;;4.28;1.80;;;22.40;75.00;;;;;;5056849;28;20242;-68
2022/06/01 11:44:37;;;;;;;2.03;1.80;;;22.60;71.60;;;;;;5056139;28;20207;-67
2022/06/01 11:47:16;;;;;;;2.03;1.65;;;22.50;70.20;;;;;;5056459;28;20555;-67
2022/06/01 11:49:44;;;;;;;2.03;1.83;;;22.40;71.40;;;;;;5054772;28;20251;-68
2022/06/01 11:52:22;;;;;;;2.00;1.50;;;22.40;72.70;;;;;;5054704;28;20266;-68
2022/06/01 11:55:15;;;;;;;2.45;1.70;;;22.50;75.90;;;;;;5056105;28;20180;-66
2022/06/01 11:57:53;;;;;;;2.22;1.80;;;22.70;72.90;;;;;;5056303;28;20502;-66
2022/06/01 12:00:51;;;;;;;1.85;1.73;;;22.60;71.60;;;;;;5056148;28;20249;-67
2022/06/01 12:03:20;;;;;;;15.18;8.98;;;22.70;72.90;;;;;;5054549;28;20235;-67
2022/06/01 12:06:05;;;;;;;2.65;1.90;;;22.80;74.50;;;;;;5055946;28;20313;-67
2022/06/01 12:08:41;;;;;;;2.38;1.80;;;22.60;71.50;;;;;;5055539;28;20171;-66
2022/06/01 12:11:15;;;;;;;4.80;2.10;;;22.50;72.20;;;;;;5054138;28;20258;-66
2022/06/01 12:13:40;;;;;;;2.88;2.15;;;22.90;72.40;;;;;;5055262;28;20163;-66
2022/06/01 12:16:18;;;;;;;2.47;1.95;;;22.30;72.90;;;;;;5055500;28;20165;-66
2022/06/01 12:19:11;;;;;;;2.42;1.60;;;22.30;71.80;;;;;;5055469;28;20522;-66
2022/06/01 12:21:43;;;;;;;1.98;1.77;;;22.60;69.80;;;;;;5055494;28;20160;-67
2022/06/01 12:30:17;;;;;;;2.17;1.50;;;21.70;72.50;;;;;;5060479;28;20163;-69
2022/06/01 12:33:01;;;;;;;3.70;1.83;;;21.60;74.50;;;;;;5068846;28;20236;-67
2022/06/01 12:35:36;;;;;;;2.92;1.58;;;21.80;75.70;;;;;;5069411;28;20180;-67
2022/06/01 12:38:13;;;;;;;2.22;1.60;;;21.90;73.30;;;;;;5068823;28;20188;-70
2022/06/01 12:40:40;;;;;;;1.92;1.70;;;21.70;72.90;;;;;;5055130;28;20179;-67
2022/06/01 12:43:15;;;;;;;2.72;1.70;;;21.50;74.00;;;;;;5055562;28;20239;-66
2022/06/01 12:45:43;;;;;;;2.92;2.00;;;21.60;76.10;;;;;;5056625;28;20201;-66
2022/06/01 12:48:19;;;;;;;1.95;1.75;;;22.30;72.40;;;;;;5065730;28;20235;-66
2022/06/01 12:51:07;;;;;;;3.35;2.17;;;22.80;71.20;;;;;;5064330;28;20172;-68
2022/06/01 12:53:44;;;;;;;2.08;1.52;;;22.80;71.00;;;;;;5063920;28;20247;-67
2022/06/01 12:56:16;;;;;;;5.50;1.38;;;23.00;69.00;;;;;;5061420;28;20160;-68
2022/06/01 12:58:43;;;;;;;1.98;1.50;;;22.70;67.30;;;;;;5054649;28;20157;-68
2022/06/01 13:01:12;;;;;;;1.70;1.60;;;22.20;66.50;;;;;;5054507;28;20168;-66
2022/06/01 13:03:45;;;;;;;1.90;1.60;;;22.40;67.10;;;;;;5054149;28;20234;-65
2022/06/01 13:06:15;;;;;;;2.80;1.50;;;22.70;64.90;;;;;;5055139;28;20517;-68
2022/06/01 13:08:41;;;;;;;1.58;1.45;;;22.60;64.30;;;;;;5054848;28;20243;-65
2022/06/01 13:11:25;;;;;;;1.90;1.42;;;22.20;65.70;;;;;;5053914;28;20180;-66
2022/06/01 13:13:51;;;;;;;1.80;1.65;;;22.10;68.90;;;;;;5055018;28;20172;-69
2022/06/01 13:16:19;;;;;;;2.45;1.30;;;22.00;69.20;;;;;;5054628;28;20706;-67
2022/06/01 13:18:46;;;;;;;2.80;1.90;;;21.80;70.80;;;;;;5055060;28;20486;-67
2022/06/01 13:21:34;;;;;;;3.25;1.48;;;21.80;70.70;;;;;;5053268;28;20271;-67
2022/06/01 13:24:05;;;;;;;5.35;1.70;;;21.80;73.10;;;;;;5054879;28;20203;-66
2022/06/01 13:26:39;;;;;;;1.67;1.30;;;21.90;73.90;;;;;;5054058;28;20267;-66
2022/06/01 13:29:20;;;;;;;1.60;1.50;;;22.00;71.50;;;;;;5054548;28;20171;-68
2022/06/01 13:31:55;;;;;;;2.03;1.73;;;22.00;71.90;;;;;;5054119;28;20179;-67
2022/06/01 13:34:30;;;;;;;1.40;1.30;;;22.30;70.90;;;;;;5054406;28;20163;-67
2022/06/01 13:37:20;;;;;;;2.50;1.40;;;22.10;66.70;;;;;;5054368;28;20171;-65
2022/06/01 13:39:55;;;;;;;3.72;1.50;;;22.50;66.80;;;;;;5055189;28;20252;-67